Elmendorf AFB, Alaska
Current Conditions -  °F | °C
As of 6:58 AM on Thursday 23 Oct 2014 (Local Time) from PAED Reporting Station
Clear Clear  
Wind Chill: 16°   Ceiling: Unl
Heat Index: 22°   Visibility: 10mi
Dew Point: 18°   Wind: 5mph
Humidity: 85%   Direction: 80°E
Pressure: 29.64"   Gusts: NA
Location:  61.24°N, 149.82°W
Report Text: PAED 231458Z AUTO 08004KT 10SM CLR M05/M08 A2964 RMK AO2 SLP035 T10551077 52016 $
Loading
Personal Weather Stations






























Interactive Weather Map
Tropical Storm Tracking
New forecast layout! Learn more

10-Day Weather Forecast

Advertisements
Track Severe Weather on mobile